DRZA/AJY METAR and TAF weather

Enter ICAO airport designator
Station Type Date Time Source
DRZA METAR 2020/07/13 14:00 UTC NOAA

DRZA 131400Z 28008KT 9999 TS FEW040CB BKN040 38/20 Q1009


Station Type Date Time Source
DRZA Decoded METAR 2020/07/13 14:00 UTC NOAA

Agadez, Niger (DRZA) 16-58N 007-59E 502M
Jul 13, 2020 - 10:00 AM EDT / 2020.07.13 1400 UTC
Wind: from the W (280 degrees) at 9 MPH (8 KT):0
Visibility: greater than 7 mile(s):0
Sky conditions: mostly cloudy
Weather: thunder; Cumulonimbus clouds observed
Temperature: 100 F (38 C)
Heat index: 105.4 F (40.8 C):1
Dew Point: 68 F (20 C)
Relative Humidity: 35%
Pressure (altimeter): 29.80 in. Hg (1009 hPa)
ob: DRZA 131400Z 28008KT 9999 TS FEW040CB BKN040 38/20 Q1009
cycle: 14

Station Type Date Time Source
DRZA TAF 2020/07/13 12:21 UTC NOAA

TAF DRZA 131100Z 1312/1412 24010KT 9999 FEW033
TEMPO 1314/1320 VRB20KT 3000 BLDU TS SHRA SCT033CB

Example: see airport list